Time;durP1;ratioP1;P1;durP2;ratioP2;P2;SDS_P1;SDS_P2;PMS_P1;PMS_P2;Temp;Humidity;BMP_temperature;BMP_pressure;BME280_temperature;BME280_humidity;BME280_pressure;Samples;Min_cycle;Max_cycle;Signal;HPM_P1;HPM_P2
2024/03/24 00:02:40;;;;;;;;;;;;;;;18.07;43.71;98633.72;10329549;28;1902;-73
2024/03/24 00:07:36;;;;;;;;;;;;;;;18.07;43.83;98635.50;10328608;28;884;-73
2024/03/24 00:12:32;;;;;;;;;;;;;;;18.06;43.77;98633.84;10328771;28;1703;-73
2024/03/24 00:17:28;;;;;;;;;;;;;;;18.04;43.71;98630.44;10328089;28;992;-73
2024/03/24 00:22:24;;;;;;;;;;;;;;;18.02;43.73;98627.03;10329096;28;1906;-73
2024/03/24 00:27:20;;;;;;;;;;;;;;;18.01;43.56;98609.53;10328342;28;890;-73
2024/03/24 00:32:16;;;;;;;;;;;;;;;18.00;43.70;98603.44;10328358;28;1105;-73
2024/03/24 00:37:12;;;;;;;;;;;;;;;17.99;43.58;98611.41;10327298;28;1064;-73
2024/03/24 00:42:08;;;;;;;;;;;;;;;17.97;43.66;98590.41;10327175;28;1981;-73
2024/03/24 00:47:04;;;;;;;;;;;;;;;17.94;43.59;98591.44;10327459;28;875;-73
2024/03/24 00:52:00;;;;;;;;;;;;;;;17.95;43.51;98589.69;10327907;28;788;-74
2024/03/24 00:56:56;;;;;;;;;;;;;;;17.93;43.51;98579.22;10327070;28;847;-72
2024/03/24 01:01:51;;;;;;;;;;;;;;;17.91;43.78;98573.19;10327475;28;1897;-73
2024/03/24 01:06:47;;;;;;;;;;;;;;;17.90;43.70;98579.41;10327627;28;818;-73
2024/03/24 01:11:43;;;;;;;;;;;;;;;17.89;43.51;98561.03;10325894;28;885;-73
2024/03/24 01:16:39;;;;;;;;;;;;;;;17.88;43.63;98551.47;10326413;28;798;-73
2024/03/24 01:21:35;;;;;;;;;;;;;;;17.88;43.56;98543.56;10326589;28;1985;-73
2024/03/24 01:26:31;;;;;;;;;;;;;;;17.87;43.67;98533.97;10326701;28;857;-73
2024/03/24 01:31:27;;;;;;;;;;;;;;;17.84;43.73;98534.13;10325587;28;1223;-73
2024/03/24 01:36:22;;;;;;;;;;;;;;;17.82;43.54;98531.59;10325281;28;1000;-73
2024/03/24 01:41:18;;;;;;;;;;;;;;;17.81;43.68;98529.91;10325857;28;1976;-73
2024/03/24 01:46:14;;;;;;;;;;;;;;;17.80;43.45;98509.75;10325631;28;914;-73
2024/03/24 01:51:11;;;;;;;;;;;;;;;17.80;43.18;98514.19;10308179;28;770;-73
2024/03/24 01:56:06;;;;;;;;;;;;;;;17.79;43.25;98507.19;10324729;28;838;-73
2024/03/24 02:01:02;;;;;;;;;;;;;;;17.75;43.41;98488.94;10325219;28;1947;-73
2024/03/24 02:05:58;;;;;;;;;;;;;;;17.75;43.38;98494.19;10325375;28;921;-73
2024/03/24 02:10:54;;;;;;;;;;;;;;;17.74;43.35;98497.78;10325444;28;917;-73
2024/03/24 02:15:50;;;;;;;;;;;;;;;17.74;43.42;98500.44;10325040;28;921;-73
2024/03/24 02:20:46;;;;;;;;;;;;;;;17.72;43.51;98483.84;10324907;28;1894;-73
2024/03/24 02:25:42;;;;;;;;;;;;;;;17.71;43.33;98476.03;10324879;28;766;-73
2024/03/24 02:30:38;;;;;;;;;;;;;;;17.70;43.36;98477.00;10324762;28;1128;-73
2024/03/24 02:35:34;;;;;;;;;;;;;;;17.70;43.36;98464.66;10325599;28;830;-73
2024/03/24 02:40:29;;;;;;;;;;;;;;;17.68;43.27;98448.13;10324354;28;1910;-73
2024/03/24 02:45:25;;;;;;;;;;;;;;;17.67;43.19;98451.69;10325028;28;905;-73
2024/03/24 02:50:21;;;;;;;;;;;;;;;17.65;43.18;98432.47;10325773;28;876;-73
2024/03/24 02:55:23;;;;;;;;;;;;;;;17.65;43.21;98429.84;10324217;28;1018;-73
2024/03/24 03:00:19;;;;;;;;;;;;;;;17.63;43.00;98421.22;10325038;28;1944;-73
2024/03/24 03:05:15;;;;;;;;;;;;;;;17.62;43.23;98416.88;10327932;28;798;-73
2024/03/24 03:10:11;;;;;;;;;;;;;;;17.60;43.09;98407.38;10331912;28;905;-73
2024/03/24 03:15:07;;;;;;;;;;;;;;;17.59;43.16;98393.34;10330391;28;1071;-73
2024/03/24 03:20:04;;;;;;;;;;;;;;;17.58;43.04;98390.81;10331009;28;794;-73
2024/03/24 03:25:00;;;;;;;;;;;;;;;17.55;42.87;98378.66;10331465;28;1902;-73
2024/03/24 03:29:56;;;;;;;;;;;;;;;17.53;43.07;98367.41;10330794;28;1115;-74
2024/03/24 03:34:53;;;;;;;;;;;;;;;17.50;42.89;98363.19;10330400;28;1071;-74
2024/03/24 03:39:49;;;;;;;;;;;;;;;17.48;42.61;98361.59;10330225;28;891;-73
2024/03/24 03:44:52;;;;;;;;;;;;;;;17.47;42.85;98359.88;10330194;28;1973;-73
2024/03/24 03:49:51;;;;;;;;;;;;;;;17.45;42.91;98359.16;10330529;28;910;-73
2024/03/24 03:54:50;;;;;;;;;;;;;;;17.43;43.10;98361.03;10329730;28;778;-73
2024/03/24 03:59:46;;;;;;;;;;;;;;;17.42;43.01;98369.88;10330257;28;793;-73
2024/03/24 04:04:41;;;;;;;;;;;;;;;17.42;43.19;98356.69;10329882;28;1922;-73
2024/03/24 04:09:37;;;;;;;;;;;;;;;17.42;42.95;98359.31;10329743;28;810;-73
2024/03/24 04:14:33;;;;;;;;;;;;;;;17.41;43.12;98352.38;10329047;28;884;-73
2024/03/24 04:19:29;;;;;;;;;;;;;;;17.40;42.99;98348.91;10328615;28;902;-73
2024/03/24 04:24:25;;;;;;;;;;;;;;;17.39;42.86;98344.56;10328689;28;1898;-73
2024/03/24 04:29:21;;;;;;;;;;;;;;;17.37;42.96;98343.84;10328732;28;1426;-73
2024/03/24 04:34:17;;;;;;;;;;;;;;;17.38;42.97;98340.25;10328704;28;882;-73
2024/03/24 04:39:13;;;;;;;;;;;;;;;17.38;42.97;98345.53;10327907;28;890;-73
2024/03/24 04:44:08;;;;;;;;;;;;;;;17.39;42.94;98333.19;10327856;28;1981;-73
2024/03/24 04:49:04;;;;;;;;;;;;;;;17.41;43.12;98333.94;10327524;28;830;-73
2024/03/24 04:54:01;;;;;;;;;;;;;;;17.41;43.04;98324.25;10327279;28;868;-73
2024/03/24 04:58:58;;;;;;;;;;;;;;;17.43;42.83;98329.44;10327154;28;798;-74
2024/03/24 05:03:54;;;;;;;;;;;;;;;17.44;43.12;98325.84;10327445;28;1962;-73
2024/03/24 05:08:50;;;;;;;;;;;;;;;17.44;43.03;98324.03;10326687;28;879;-74
2024/03/24 05:13:46;;;;;;;;;;;;;;;17.45;42.89;98317.00;10326403;28;867;-73
2024/03/24 05:18:42;;;;;;;;;;;;;;;17.46;42.95;98310.78;10327118;28;822;-73
2024/03/24 05:23:38;;;;;;;;;;;;;;;17.47;42.98;98323.84;10326784;28;1961;-73
2024/03/24 05:28:34;;;;;;;;;;;;;;;17.48;42.96;98316.81;10324960;28;1077;-73
2024/03/24 05:33:31;;;;;;;;;;;;;;;17.49;42.84;98303.53;10325974;28;966;-73
2024/03/24 05:38:27;;;;;;;;;;;;;;;17.51;42.86;98311.34;10325837;28;845;-73
2024/03/24 05:43:22;;;;;;;;;;;;;;;17.51;42.85;98308.69;10325530;28;1906;-73
2024/03/24 05:48:18;;;;;;;;;;;;;;;17.51;43.12;98296.38;10325065;28;1058;-74
2024/03/24 05:53:14;;;;;;;;;;;;;;;17.52;42.87;98297.22;10324954;28;814;-73
2024/03/24 05:58:10;;;;;;;;;;;;;;;17.52;43.01;98302.47;10325462;28;826;-74
2024/03/24 06:03:07;;;;;;;;;;;;;;;17.53;42.98;98298.91;10325248;28;1897;-73
2024/03/24 06:08:02;;;;;;;;;;;;;;;17.56;42.97;98311.03;10325210;28;883;-73
2024/03/24 06:12:58;;;;;;;;;;;;;;;17.54;43.02;98321.66;10326286;28;806;-73
2024/03/24 06:17:54;;;;;;;;;;;;;;;17.55;42.80;98319.88;10325058;28;856;-73
2024/03/24 06:22:51;;;;;;;;;;;;;;;17.56;42.83;98322.41;10324903;28;1897;-75
2024/03/24 06:27:47;;;;;;;;;;;;;;;17.57;42.89;98307.44;10325404;28;837;-73
2024/03/24 06:32:43;;;;;;;;;;;;;;;17.57;42.82;98313.56;10325501;28;1166;-72
2024/03/24 06:37:39;;;;;;;;;;;;;;;17.57;42.86;98300.38;10325517;28;847;-73
2024/03/24 06:42:39;;;;;;;;;;;;;;;17.56;42.76;98319.78;10331652;28;1909;-73
2024/03/24 06:47:35;;;;;;;;;;;;;;;17.56;42.82;98327.69;10332115;28;914;-74
2024/03/24 06:52:31;;;;;;;;;;;;;;;17.56;42.93;98325.06;10332061;28;885;-74
2024/03/24 06:57:26;;;;;;;;;;;;;;;17.54;42.78;98319.03;10331841;28;827;-73
2024/03/24 07:02:22;;;;;;;;;;;;;;;17.56;42.73;98322.41;10332379;28;1898;-73
2024/03/24 07:07:18;;;;;;;;;;;;;;;17.58;43.33;98330.22;10331515;28;937;-76
2024/03/24 07:12:14;;;;;;;;;;;;;;;17.57;42.79;98337.28;10331379;28;921;-73
2024/03/24 07:17:10;;;;;;;;;;;;;;;17.59;42.89;98339.81;10330382;28;819;-73
2024/03/24 07:22:07;;;;;;;;;;;;;;;17.58;43.13;98344.25;10330933;28;1897;-73
2024/03/24 07:27:03;;;;;;;;;;;;;;;17.60;43.07;98363.41;10330761;28;955;-73
2024/03/24 07:31:59;;;;;;;;;;;;;;;17.62;43.24;98365.97;10331522;28;1259;-73
2024/03/24 07:36:55;;;;;;;;;;;;;;;17.62;43.28;98360.69;10331075;28;811;-74
2024/03/24 07:41:51;;;;;;;;;;;;;;;17.62;43.55;98372.06;10330348;28;1914;-77
2024/03/24 07:46:46;;;;;;;;;;;;;;;17.63;43.48;98373.78;10330260;28;877;-73
2024/03/24 07:51:42;;;;;;;;;;;;;;;17.63;43.26;98379.06;10328846;28;879;-73
2024/03/24 07:56:38;;;;;;;;;;;;;;;17.65;43.38;98386.84;10329698;28;900;-74
2024/03/24 08:01:34;;;;;;;;;;;;;;;17.66;43.40;98394.66;10330263;28;1897;-74
2024/03/24 08:06:30;;;;;;;;;;;;;;;17.66;43.17;98389.38;10329339;28;838;-77
2024/03/24 08:11:26;;;;;;;;;;;;;;;17.66;43.41;98393.81;10329093;28;969;-73
2024/03/24 08:16:22;;;;;;;;;;;;;;;17.66;43.38;98399.94;10329232;28;980;-73
2024/03/24 08:21:17;;;;;;;;;;;;;;;17.66;43.27;98407.84;10328637;28;1897;-73
2024/03/24 08:26:13;;;;;;;;;;;;;;;17.65;43.32;98415.81;10326351;28;1022;-72
2024/03/24 08:31:09;;;;;;;;;;;;;;;17.66;43.52;98420.16;10328035;28;1228;-72
2024/03/24 08:36:07;;;;;;;;;;;;;;;17.65;43.25;98429.84;10327391;28;926;-74
2024/03/24 08:41:03;;;;;;;;;;;;;;;17.64;43.06;98430.78;10327644;28;1918;-72
2024/03/24 08:45:59;;;;;;;;;;;;;;;17.64;43.16;98449.25;10326861;28;956;-72
2024/03/24 08:50:55;;;;;;;;;;;;;;;17.64;43.28;98449.25;10327217;28;1043;-73
2024/03/24 08:55:51;;;;;;;;;;;;;;;17.63;43.23;98437.03;10327186;28;901;-74
2024/03/24 09:00:47;;;;;;;;;;;;;;;17.65;43.27;98426.38;10326240;28;1890;-72
2024/03/24 09:05:43;;;;;;;;;;;;;;;17.66;43.18;98433.34;10326022;28;794;-72
2024/03/24 09:10:39;;;;;;;;;;;;;;;17.67;43.29;98427.13;10326492;28;859;-72
2024/03/24 09:15:35;;;;;;;;;;;;;;;17.68;43.30;98421.75;10326564;28;863;-72
2024/03/24 09:20:31;;;;;;;;;;;;;;;17.68;43.39;98408.59;10326519;28;1902;-72
2024/03/24 09:25:27;;;;;;;;;;;;;;;17.71;43.29;98407.53;10325674;28;771;-71
2024/03/24 09:30:23;;;;;;;;;;;;;;;17.71;43.39;98405.75;10325693;28;1242;-74
2024/03/24 09:35:19;;;;;;;;;;;;;;;17.74;43.38;98404.72;10325371;28;846;-72
2024/03/24 09:40:15;;;;;;;;;;;;;;;17.74;43.15;98408.19;10325518;28;911;-72
2024/03/24 09:45:10;;;;;;;;;;;;;;;17.77;43.34;98409.78;10324953;28;1902;-72
2024/03/24 09:50:06;;;;;;;;;;;;;;;17.75;43.38;98399.31;10324935;28;794;-74
2024/03/24 09:55:02;;;;;;;;;;;;;;;17.74;43.28;98402.91;10325272;28;776;-72
2024/03/24 09:59:58;;;;;;;;;;;;;;;17.77;43.30;98396.59;10324865;28;790;-72
2024/03/24 10:04:54;;;;;;;;;;;;;;;17.80;43.37;98385.88;10324570;28;1889;-71
2024/03/24 10:09:50;;;;;;;;;;;;;;;17.82;43.24;98388.44;10324463;28;890;-72
2024/03/24 10:14:46;;;;;;;;;;;;;;;17.79;43.41;98385.94;10326693;28;985;-72
2024/03/24 10:19:42;;;;;;;;;;;;;;;17.79;43.53;98389.47;10333261;28;866;-72
2024/03/24 10:24:37;;;;;;;;;;;;;;;17.79;43.34;98375.41;10332601;28;1955;-72
2024/03/24 10:29:33;;;;;;;;;;;;;;;17.79;43.49;98370.13;10333625;28;1367;-72
2024/03/24 10:34:29;;;;;;;;;;;;;;;17.81;43.61;98360.38;10333240;28;878;-72
2024/03/24 10:39:25;;;;;;;;;;;;;;;17.84;43.30;98357.53;10332386;28;886;-72
2024/03/24 10:44:25;;;;;;;;;;;;;;;17.84;43.38;98350.50;10332161;28;1918;-72
2024/03/24 10:49:21;;;;;;;;;;;;;;;17.86;43.27;98340.66;10332790;28;887;-72
2024/03/24 10:54:16;;;;;;;;;;;;;;;17.87;43.26;98331.00;10332933;28;806;-72
2024/03/24 10:59:12;;;;;;;;;;;;;;;17.85;43.29;98332.88;10332158;28;888;-72
2024/03/24 11:04:08;;;;;;;;;;;;;;;17.84;43.33;98313.59;10331369;28;1914;-72
2024/03/24 11:09:05;;;;;;;;;;;;;;;17.81;43.25;98319.03;10331835;28;893;-72
2024/03/24 11:14:01;;;;;;;;;;;;;;;17.81;43.39;98320.84;10331132;28;837;-72
2024/03/24 11:18:57;;;;;;;;;;;;;;;17.83;43.44;98311.03;10331548;28;869;-72
2024/03/24 11:23:53;;;;;;;;;;;;;;;17.82;43.58;98307.56;10331316;28;1890;-72
2024/03/24 11:28:49;;;;;;;;;;;;;;;17.79;43.55;98336.75;10330907;28;1233;-71
2024/03/24 11:33:45;;;;;;;;;;;;;;;17.79;43.52;98356.94;10330994;28;849;-72
2024/03/24 11:38:42;;;;;;;;;;;;;;;17.79;43.33;98362.22;10330596;28;1103;-72
2024/03/24 11:43:38;;;;;;;;;;;;;;;17.80;43.46;98346.34;10329380;28;1956;-73
2024/03/24 11:48:34;;;;;;;;;;;;;;;17.81;43.48;98353.31;10331100;28;854;-72
2024/03/24 11:53:30;;;;;;;;;;;;;;;17.81;43.59;98352.47;10330199;28;859;-72
2024/03/24 11:58:26;;;;;;;;;;;;;;;17.80;43.41;98356.91;10329478;28;811;-72
2024/03/24 12:03:22;;;;;;;;;;;;;;;17.79;43.56;98354.31;10329201;28;1898;-72
2024/03/24 12:08:18;;;;;;;;;;;;;;;17.78;43.50;98361.38;10329677;28;849;-72
2024/03/24 12:13:15;;;;;;;;;;;;;;;17.78;43.60;98376.34;10329469;28;913;-72
2024/03/24 12:18:11;;;;;;;;;;;;;;;17.78;43.65;98384.25;10329243;28;846;-72
2024/03/24 12:23:07;;;;;;;;;;;;;;;17.79;43.67;98385.94;10329072;28;1906;-72
2024/03/24 12:28:03;;;;;;;;;;;;;;;17.79;43.63;98393.84;10328291;28;798;-72
2024/03/24 12:32:59;;;;;;;;;;;;;;;17.82;43.71;98388.44;10329083;28;1358;-72
2024/03/24 12:37:54;;;;;;;;;;;;;;;17.84;43.65;98381.25;10326695;28;894;-72
2024/03/24 12:42:50;;;;;;;;;;;;;;;17.88;43.61;98380.13;10328179;28;1910;-72
2024/03/24 12:47:46;;;;;;;;;;;;;;;17.91;43.65;98374.63;10328016;28;831;-72
2024/03/24 12:52:42;;;;;;;;;;;;;;;17.95;43.45;98378.78;10327883;28;944;-72
2024/03/24 12:57:38;;;;;;;;;;;;;;;17.94;43.51;98369.16;10327109;28;910;-72
2024/03/24 13:02:34;;;;;;;;;;;;;;;17.91;43.56;98372.84;10326178;28;1957;-72
2024/03/24 13:07:29;;;;;;;;;;;;;;;17.91;43.61;98364.09;10326729;28;882;-72
2024/03/24 13:12:25;;;;;;;;;;;;;;;17.90;43.60;98349.25;10327110;28;980;-72
2024/03/24 13:17:26;;;;;;;;;;;;;;;17.88;43.69;98357.22;10327496;28;961;-72
2024/03/24 13:22:23;;;;;;;;;;;;;;;17.90;43.76;98346.59;10326143;28;1905;-72
2024/03/24 13:27:18;;;;;;;;;;;;;;;17.89;43.58;98347.53;10325913;28;1036;-72
2024/03/24 13:32:14;;;;;;;;;;;;;;;17.87;43.62;98338.91;10325614;28;1516;-72
2024/03/24 13:37:11;;;;;;;;;;;;;;;17.87;43.70;98362.63;10326014;28;985;-73
2024/03/24 13:42:09;;;;;;;;;;;;;;;17.87;43.81;98360.00;10325497;28;1983;-72
2024/03/24 13:47:06;;;;;;;;;;;;;;;17.86;43.69;98364.38;10326451;28;810;-72
2024/03/24 13:52:02;;;;;;;;;;;;;;;17.90;43.62;98349.25;10324640;28;854;-72
2024/03/24 13:56:58;;;;;;;;;;;;;;;17.92;43.63;98349.97;10325242;28;780;-72
2024/03/24 14:01:55;;;;;;;;;;;;;;;17.87;43.72;98358.19;10325045;28;1953;-72
2024/03/24 14:06:51;;;;;;;;;;;;;;;17.88;43.79;98356.41;10325154;28;869;-72
2024/03/24 14:11:46;;;;;;;;;;;;;;;17.86;43.72;98343.31;10325660;28;863;-72
2024/03/24 14:16:42;;;;;;;;;;;;;;;17.86;43.59;98345.09;10324537;28;921;-72
2024/03/24 14:21:38;;;;;;;;;;;;;;;17.86;43.59;98342.47;10325536;28;1961;-74
2024/03/24 14:26:34;;;;;;;;;;;;;;;17.87;43.69;98352.09;10324331;28;1063;-72
2024/03/24 14:31:30;;;;;;;;;;;;;;;17.87;43.85;98360.81;10325025;28;1312;-72
2024/03/24 14:36:26;;;;;;;;;;;;;;;17.91;43.78;98374.63;10324193;28;893;-72
2024/03/24 14:41:22;;;;;;;;;;;;;;;17.93;43.92;98373.59;10325171;28;1975;-72
2024/03/24 14:46:18;;;;;;;;;;;;;;;17.92;43.91;98364.00;10325130;28;712;-73
2024/03/24 14:51:14;;;;;;;;;;;;;;;17.92;44.09;98364.00;10324434;28;810;-72
2024/03/24 14:56:09;;;;;;;;;;;;;;;17.93;43.95;98349.03;10324306;28;960;-75
2024/03/24 15:01:05;;;;;;;;;;;;;;;17.92;44.04;98352.59;10327278;28;1890;-72
2024/03/24 15:06:01;;;;;;;;;;;;;;;17.92;43.99;98332.38;10331702;28;883;-72
2024/03/24 15:10:57;;;;;;;;;;;;;;;17.92;43.94;98321.84;10331573;28;830;-72
2024/03/24 15:15:54;;;;;;;;;;;;;;;17.92;43.98;98327.09;10330998;28;810;-73
2024/03/24 15:20:50;;;;;;;;;;;;;;;17.90;43.95;98329.00;10331062;28;1897;-72
2024/03/24 15:25:46;;;;;;;;;;;;;;;17.91;43.87;98345.66;10331560;28;857;-72
2024/03/24 15:30:42;;;;;;;;;;;;;;;17.91;43.96;98346.47;10331350;28;1237;-72
2024/03/24 15:35:40;;;;;;;;;;;;;;;17.91;43.89;98350.91;10331407;28;939;-72
2024/03/24 15:40:35;;;;;;;;;;;;;;;17.92;43.89;98342.91;10330349;28;1967;-72
2024/03/24 15:45:31;;;;;;;;;;;;;;;17.91;43.90;98349.13;10329904;28;1123;-72
2024/03/24 15:50:28;;;;;;;;;;;;;;;17.90;44.14;98349.25;10330080;28;787;-72
2024/03/24 15:55:25;;;;;;;;;;;;;;;17.90;43.93;98362.41;10330531;28;821;-77
2024/03/24 16:00:21;;;;;;;;;;;;;;;17.89;44.12;98384.44;10330305;28;853;-72
2024/03/24 16:05:16;;;;;;;;;;;;;;;17.91;44.16;98372.00;10329442;28;1965;-72
2024/03/24 16:10:12;;;;;;;;;;;;;;;17.95;43.78;98389.31;10329920;28;873;-72
2024/03/24 16:15:08;;;;;;;;;;;;;;;17.96;44.12;98367.28;10328726;28;859;-72
2024/03/24 16:20:04;;;;;;;;;;;;;;;17.94;44.16;98380.53;10329826;28;890;-72
2024/03/24 16:25:00;;;;;;;;;;;;;;;17.92;44.13;98387.72;10329200;28;1959;-72
2024/03/24 16:29:56;;;;;;;;;;;;;;;17.94;44.23;98395.53;10328935;28;1306;-72
2024/03/24 16:34:53;;;;;;;;;;;;;;;17.94;43.99;98399.00;10328279;28;921;-72
2024/03/24 16:39:49;;;;;;;;;;;;;;;17.95;44.11;98399.88;10327847;28;919;-72
2024/03/24 16:44:45;;;;;;;;;;;;;;;17.94;44.34;98413.97;10328387;28;1918;-73
2024/03/24 16:49:41;;;;;;;;;;;;;;;17.92;44.16;98416.72;10327157;28;876;-72
2024/03/24 16:54:37;;;;;;;;;;;;;;;17.92;44.09;98411.47;10327830;28;803;-72
2024/03/24 16:59:33;;;;;;;;;;;;;;;17.93;44.20;98413.13;10327851;28;798;-72
2024/03/24 17:04:28;;;;;;;;;;;;;;;17.93;44.16;98420.22;10326230;28;1897;-72
2024/03/24 17:09:25;;;;;;;;;;;;;;;17.93;44.28;98413.13;10326708;28;775;-72
2024/03/24 17:14:21;;;;;;;;;;;;;;;17.93;44.07;98417.56;10327282;28;807;-72
2024/03/24 17:19:18;;;;;;;;;;;;;;;17.92;44.10;98422.00;10326303;28;811;-72
2024/03/24 17:24:14;;;;;;;;;;;;;;;17.93;44.14;98417.56;10325839;28;1897;-72
2024/03/24 17:29:10;;;;;;;;;;;;;;;17.93;44.20;98422.84;10326219;28;1287;-72
2024/03/24 17:34:06;;;;;;;;;;;;;;;17.92;44.07;98439.59;10325872;28;797;-72
2024/03/24 17:39:04;;;;;;;;;;;;;;;17.91;44.20;98454.56;10325990;28;861;-72
2024/03/24 17:44:00;;;;;;;;;;;;;;;17.93;44.30;98446.56;10325536;28;1969;-73
2024/03/24 17:48:56;;;;;;;;;;;;;;;17.92;44.24;98460.69;10325428;28;794;-73
2024/03/24 17:53:51;;;;;;;;;;;;;;;17.92;44.07;98468.59;10325944;28;929;-73
2024/03/24 17:58:47;;;;;;;;;;;;;;;17.93;44.41;98467.66;10325293;28;972;-73
2024/03/24 18:03:43;;;;;;;;;;;;;;;17.92;44.16;98479.13;10325084;28;1898;-72
2024/03/24 18:13:53;;;;;;;;;;;;;;;17.93;44.10;98486.13;10324580;28;632;-73
2024/03/24 18:18:49;;;;;;;;;;;;;;;17.92;44.37;98497.56;10325422;28;881;-73
2024/03/24 18:23:45;;;;;;;;;;;;;;;17.93;44.40;98502.78;10325283;28;1886;-73
2024/03/24 18:28:41;;;;;;;;;;;;;;;17.93;44.34;98507.19;10323977;28;1156;-72
2024/03/24 18:33:38;;;;;;;;;;;;;;;17.93;44.33;98502.78;10325238;28;845;-72
2024/03/24 18:38:34;;;;;;;;;;;;;;;17.94;44.43;98525.53;10331774;28;978;-73
2024/03/24 18:43:30;;;;;;;;;;;;;;;17.94;44.35;98525.53;10332349;28;1910;-73
2024/03/24 18:48:26;;;;;;;;;;;;;;;17.95;44.48;98532.53;10332243;28;777;-73
2024/03/24 18:53:22;;;;;;;;;;;;;;;17.95;44.52;98544.88;10332001;28;954;-73
2024/03/24 18:58:18;;;;;;;;;;;;;;;17.96;44.44;98543.91;10332979;28;920;-73
2024/03/24 19:03:14;;;;;;;;;;;;;;;17.96;44.34;98543.91;10331527;28;1937;-72
2024/03/24 19:08:15;;;;;;;;;;;;;;;17.95;44.56;98540.44;10332715;28;997;-73
2024/03/24 19:13:11;;;;;;;;;;;;;;;17.98;44.51;98557.84;10331772;28;910;-73
2024/03/24 19:18:07;;;;;;;;;;;;;;;17.97;44.33;98550.88;10331027;28;961;-73
2024/03/24 19:23:03;;;;;;;;;;;;;;;17.99;44.27;98556.06;10330787;28;1943;-73
2024/03/24 19:27:59;;;;;;;;;;;;;;;17.98;44.34;98560.47;10330974;28;1011;-73
2024/03/24 19:32:55;;;;;;;;;;;;;;;18.00;44.35;98563.00;10331848;28;1278;-73
2024/03/24 19:37:51;;;;;;;;;;;;;;;18.00;44.21;98560.38;10330576;28;980;-73
2024/03/24 19:42:47;;;;;;;;;;;;;;;17.99;44.46;98564.81;10330148;28;1972;-72
2024/03/24 19:47:42;;;;;;;;;;;;;;;18.00;44.19;98571.78;10328679;28;826;-72
2024/03/24 19:52:39;;;;;;;;;;;;;;;18.00;44.26;98577.06;10329188;28;925;-72
2024/03/24 19:57:35;;;;;;;;;;;;;;;18.00;44.28;98587.59;10329586;28;838;-73
2024/03/24 20:02:31;;;;;;;;;;;;;;;18.02;44.37;98605.94;10329900;28;1965;-72
2024/03/24 20:07:27;;;;;;;;;;;;;;;18.02;44.34;98604.16;10330453;28;889;-72
2024/03/24 20:12:24;;;;;;;;;;;;;;;18.03;44.20;98597.97;10329629;28;814;-73
2024/03/24 20:17:20;;;;;;;;;;;;;;;18.03;44.38;98602.41;10328865;28;1525;-73
2024/03/24 20:22:15;;;;;;;;;;;;;;;18.03;44.36;98611.13;10328633;28;1898;-73
2024/03/24 20:27:11;;;;;;;;;;;;;;;18.03;44.48;98608.50;10328439;28;891;-73
2024/03/24 20:32:08;;;;;;;;;;;;;;;18.03;44.25;98619.06;10327684;28;1160;-73
2024/03/24 20:37:04;;;;;;;;;;;;;;;18.03;44.45;98624.31;10328924;28;786;-73
2024/03/24 20:42:00;;;;;;;;;;;;;;;18.02;44.40;98625.25;10327835;28;1968;-73
2024/03/24 20:46:56;;;;;;;;;;;;;;;18.03;44.36;98631.41;10327876;28;902;-73
2024/03/24 20:51:53;;;;;;;;;;;;;;;18.01;44.28;98626.19;10328168;28;818;-73
2024/03/24 20:56:49;;;;;;;;;;;;;;;18.01;44.26;98625.38;10327810;28;826;-73
2024/03/24 21:01:45;;;;;;;;;;;;;;;18.00;44.49;98636.84;10326693;28;1898;-72
2024/03/24 21:06:41;;;;;;;;;;;;;;;18.00;44.31;98635.06;10327473;28;858;-72
2024/03/24 21:11:37;;;;;;;;;;;;;;;17.99;44.28;98638.63;10327605;28;842;-72
2024/03/24 21:16:33;;;;;;;;;;;;;;;17.99;44.35;98643.91;10327290;28;942;-72
2024/03/24 21:21:30;;;;;;;;;;;;;;;17.96;44.47;98639.66;10326510;28;1957;-72
2024/03/24 21:26:26;;;;;;;;;;;;;;;17.97;44.59;98645.78;10326342;28;872;-72
2024/03/24 21:31:23;;;;;;;;;;;;;;;17.97;44.53;98651.06;10325947;28;1461;-72
2024/03/24 21:36:18;;;;;;;;;;;;;;;17.95;44.41;98651.16;10325940;28;981;-72
2024/03/24 21:46:29;;;;;;;;;;;;;;;17.93;44.43;98652.19;10325480;28;621;-72
2024/03/24 21:51:26;;;;;;;;;;;;;;;17.93;44.36;98660.09;10325740;28;842;-72
2024/03/24 21:56:22;;;;;;;;;;;;;;;17.91;44.33;98657.56;10326249;28;865;-72
2024/03/24 22:01:18;;;;;;;;;;;;;;;17.90;44.49;98658.50;10326098;28;1889;-72
2024/03/24 22:06:13;;;;;;;;;;;;;;;17.89;44.24;98661.22;10326118;28;890;-72
2024/03/24 22:11:09;;;;;;;;;;;;;;;17.87;44.47;98668.41;10323737;28;901;-72
2024/03/24 22:16:06;;;;;;;;;;;;;;;17.85;44.18;98668.47;10326422;28;893;-72
2024/03/24 22:21:02;;;;;;;;;;;;;;;17.84;44.33;98671.19;10325415;28;1959;-72
2024/03/24 22:25:58;;;;;;;;;;;;;;;17.81;44.40;98682.78;10324968;28;871;-72
2024/03/24 22:30:54;;;;;;;;;;;;;;;17.80;44.17;98675.81;10325024;28;1152;-72
2024/03/24 22:35:51;;;;;;;;;;;;;;;17.78;44.27;98668.91;10324864;28;864;-72
2024/03/24 22:40:46;;;;;;;;;;;;;;;17.75;44.23;98676.06;10325057;28;997;-72
2024/03/24 22:45:42;;;;;;;;;;;;;;;17.75;44.37;98681.31;10324056;28;837;-72
2024/03/24 22:50:38;;;;;;;;;;;;;;;17.74;44.30;98679.66;10324565;28;886;-72
2024/03/24 22:55:34;;;;;;;;;;;;;;;17.71;44.26;98679.84;10324431;28;818;-72
2024/03/24 23:00:33;;;;;;;;;;;;;;;17.70;44.27;98680.75;10324351;28;894;-72
2024/03/24 23:05:29;;;;;;;;;;;;;;;17.69;44.20;98672.94;10324110;28;1894;-72
2024/03/24 23:10:25;;;;;;;;;;;;;;;17.66;44.28;98681.88;10324058;28;829;-72
2024/03/24 23:15:20;;;;;;;;;;;;;;;17.66;44.28;98689.78;10324060;28;763;-72
2024/03/24 23:20:16;;;;;;;;;;;;;;;17.63;44.29;98695.25;10324219;28;789;-72
2024/03/24 23:25:12;;;;;;;;;;;;;;;17.63;44.24;98697.00;10331819;28;1897;-72
2024/03/24 23:30:08;;;;;;;;;;;;;;;17.62;44.11;98701.44;10331589;28;1118;-72
2024/03/24 23:35:08;;;;;;;;;;;;;;;17.61;44.24;98698.91;10330847;28;925;-72
2024/03/24 23:40:04;;;;;;;;;;;;;;;17.60;44.27;98697.19;10330528;28;910;-72
2024/03/24 23:45:00;;;;;;;;;;;;;;;17.58;44.29;98710.50;10330307;28;1906;-72
2024/03/24 23:49:57;;;;;;;;;;;;;;;17.58;44.17;98714.88;10330261;28;793;-73
2024/03/24 23:54:53;;;;;;;;;;;;;;;17.57;44.31;98714.03;10330261;28;906;-72
2024/03/24 23:59:49;;;;;;;;;;;;;;;17.56;44.44;98709.72;10329876;28;941;-72
